Current Weather

Palm Springs Intl

Palm Springs, California (KPSP)

Report from: Sunday, June 26, 2022 9:53 AM PDT
Current time: Sunday, June 26, 2022 10:15 AM PDT

Nearby weather
Weather history
Weather forecast

Temperature35.6°C (96.1°F)
Heat index34.8°C (94.6°F)
Dew point13.3°C (55.9°F)
Winds 6 kts (3.1 m/s, 6.9 mph) Vrb
Winds variableWinds variable
Visibility10 mi. (16.1 km)
Clouds Sky clear
Altimeter29.96 in.Hg (1015 mB)
Relative humidity26 %
Density altitude2,505 ft. (764 m)
Sea-level pressure101.4 kPa (1014 mB, 29.95 in.Hg)
Remarks Automated weather observing station with precipitation discriminator
Flight conditions Visual Meteorological Conditions
Raw dataKPSP 261653Z VRB06KT 10SM CLR 36/13 A2996 RMK AO2 SLP141 T03560133
An error has occurred. This application may no longer respond until reloaded. Reload 🗙